sensor_id;sensor_type;location;lat;lon;timestamp;P1;durP1;ratioP1;P2;durP2;ratioP2
7719;SDS011;3902;49.474;8.616;2023-02-20T00:02:13;5.13;;;3.20;;
7719;SDS011;3902;49.474;8.616;2023-02-20T00:04:39;5.30;;;3.00;;
7719;SDS011;3902;49.474;8.616;2023-02-20T00:07:05;5.80;;;3.50;;
7719;SDS011;3902;49.474;8.616;2023-02-20T00:09:30;6.33;;;3.40;;
7719;SDS011;3902;49.474;8.616;2023-02-20T00:11:56;6.47;;;3.40;;
7719;SDS011;3902;49.474;8.616;2023-02-20T00:14:21;5.70;;;3.07;;
7719;SDS011;3902;49.474;8.616;2023-02-20T00:16:47;5.17;;;3.20;;
7719;SDS011;3902;49.474;8.616;2023-02-20T00:19:13;5.23;;;3.10;;
7719;SDS011;3902;49.474;8.616;2023-02-20T00:21:43;4.80;;;3.13;;
7719;SDS011;3902;49.474;8.616;2023-02-20T00:24:10;5.80;;;3.17;;
7719;SDS011;3902;49.474;8.616;2023-02-20T00:26:36;4.90;;;2.80;;
7719;SDS011;3902;49.474;8.616;2023-02-20T00:29:01;7.07;;;3.50;;
7719;SDS011;3902;49.474;8.616;2023-02-20T00:31:27;6.70;;;3.80;;
7719;SDS011;3902;49.474;8.616;2023-02-20T00:33:52;5.60;;;3.30;;
7719;SDS011;3902;49.474;8.616;2023-02-20T00:36:18;6.87;;;3.83;;
7719;SDS011;3902;49.474;8.616;2023-02-20T00:38:44;6.10;;;3.27;;
7719;SDS011;3902;49.474;8.616;2023-02-20T00:41:10;6.10;;;3.33;;
7719;SDS011;3902;49.474;8.616;2023-02-20T00:43:38;5.63;;;3.77;;
7719;SDS011;3902;49.474;8.616;2023-02-20T00:46:04;6.97;;;3.87;;
7719;SDS011;3902;49.474;8.616;2023-02-20T00:48:30;5.60;;;3.90;;
7719;SDS011;3902;49.474;8.616;2023-02-20T00:50:55;3.90;;;2.87;;
7719;SDS011;3902;49.474;8.616;2023-02-20T00:53:21;6.23;;;3.13;;
7719;SDS011;3902;49.474;8.616;2023-02-20T00:55:46;4.63;;;3.07;;
7719;SDS011;3902;49.474;8.616;2023-02-20T00:58:12;5.30;;;3.40;;
7719;SDS011;3902;49.474;8.616;2023-02-20T01:00:37;6.73;;;3.03;;
7719;SDS011;3902;49.474;8.616;2023-02-20T01:03:03;7.77;;;3.40;;
7719;SDS011;3902;49.474;8.616;2023-02-20T01:05:28;5.37;;;3.13;;
7719;SDS011;3902;49.474;8.616;2023-02-20T01:07:54;4.90;;;3.07;;
7719;SDS011;3902;49.474;8.616;2023-02-20T01:10:19;4.60;;;3.00;;
7719;SDS011;3902;49.474;8.616;2023-02-20T01:12:45;4.40;;;3.50;;
7719;SDS011;3902;49.474;8.616;2023-02-20T01:15:10;5.37;;;3.07;;
7719;SDS011;3902;49.474;8.616;2023-02-20T01:17:38;5.30;;;3.10;;
7719;SDS011;3902;49.474;8.616;2023-02-20T01:20:03;5.20;;;3.10;;
7719;SDS011;3902;49.474;8.616;2023-02-20T01:22:29;4.50;;;3.20;;
7719;SDS011;3902;49.474;8.616;2023-02-20T01:24:55;4.50;;;2.87;;
7719;SDS011;3902;49.474;8.616;2023-02-20T01:27:20;4.17;;;2.90;;
7719;SDS011;3902;49.474;8.616;2023-02-20T01:29:46;3.70;;;2.80;;
7719;SDS011;3902;49.474;8.616;2023-02-20T01:32:11;4.57;;;3.03;;
7719;SDS011;3902;49.474;8.616;2023-02-20T01:34:37;3.77;;;2.83;;
7719;SDS011;3902;49.474;8.616;2023-02-20T01:37:03;4.40;;;3.00;;
7719;SDS011;3902;49.474;8.616;2023-02-20T01:39:29;4.63;;;2.60;;
7719;SDS011;3902;49.474;8.616;2023-02-20T01:41:59;6.07;;;3.10;;
7719;SDS011;3902;49.474;8.616;2023-02-20T01:44:28;5.80;;;3.47;;
7719;SDS011;3902;49.474;8.616;2023-02-20T01:46:58;4.33;;;2.93;;
7719;SDS011;3902;49.474;8.616;2023-02-20T01:49:33;5.17;;;3.20;;
7719;SDS011;3902;49.474;8.616;2023-02-20T01:52:08;5.53;;;3.20;;
7719;SDS011;3902;49.474;8.616;2023-02-20T01:54:39;5.57;;;3.50;;
7719;SDS011;3902;49.474;8.616;2023-02-20T01:57:08;3.70;;;2.73;;
7719;SDS011;3902;49.474;8.616;2023-02-20T01:59:37;4.83;;;3.20;;
7719;SDS011;3902;49.474;8.616;2023-02-20T02:02:05;4.63;;;3.10;;
7719;SDS011;3902;49.474;8.616;2023-02-20T02:04:32;3.57;;;2.80;;
7719;SDS011;3902;49.474;8.616;2023-02-20T02:06:59;4.00;;;2.97;;
7719;SDS011;3902;49.474;8.616;2023-02-20T02:12:24;6.00;;;2.80;;
7719;SDS011;3902;49.474;8.616;2023-02-20T02:14:49;3.90;;;3.13;;
7719;SDS011;3902;49.474;8.616;2023-02-20T02:17:23;4.33;;;3.40;;
7719;SDS011;3902;49.474;8.616;2023-02-20T02:20:34;7.60;;;3.17;;
7719;SDS011;3902;49.474;8.616;2023-02-20T02:32:07;5.50;;;2.80;;
7719;SDS011;3902;49.474;8.616;2023-02-20T02:45:42;5.63;;;3.30;;
7719;SDS011;3902;49.474;8.616;2023-02-20T02:48:19;4.30;;;3.30;;
7719;SDS011;3902;49.474;8.616;2023-02-20T02:50:52;5.13;;;3.60;;
7719;SDS011;3902;49.474;8.616;2023-02-20T02:53:22;6.17;;;3.70;;
7719;SDS011;3902;49.474;8.616;2023-02-20T02:55:48;4.63;;;3.30;;
7719;SDS011;3902;49.474;8.616;2023-02-20T02:58:13;4.97;;;3.30;;
7719;SDS011;3902;49.474;8.616;2023-02-20T03:08:47;3.93;;;3.40;;
7719;SDS011;3902;49.474;8.616;2023-02-20T03:11:21;5.87;;;3.10;;
7719;SDS011;3902;49.474;8.616;2023-02-20T03:13:51;3.80;;;2.90;;
7719;SDS011;3902;49.474;8.616;2023-02-20T03:16:42;4.90;;;3.23;;
7719;SDS011;3902;49.474;8.616;2023-02-20T03:19:10;3.80;;;2.90;;
7719;SDS011;3902;49.474;8.616;2023-02-20T03:21:39;4.33;;;3.20;;
7719;SDS011;3902;49.474;8.616;2023-02-20T03:24:08;3.90;;;2.90;;
7719;SDS011;3902;49.474;8.616;2023-02-20T03:26:37;3.50;;;3.03;;
7719;SDS011;3902;49.474;8.616;2023-02-20T03:29:22;5.90;;;3.30;;
7719;SDS011;3902;49.474;8.616;2023-02-20T03:31:56;5.63;;;3.30;;
7719;SDS011;3902;49.474;8.616;2023-02-20T03:34:45;5.40;;;3.30;;
7719;SDS011;3902;49.474;8.616;2023-02-20T03:37:32;5.03;;;3.20;;
7719;SDS011;3902;49.474;8.616;2023-02-20T03:40:19;5.10;;;3.10;;
7719;SDS011;3902;49.474;8.616;2023-02-20T03:43:06;6.00;;;3.73;;
7719;SDS011;3902;49.474;8.616;2023-02-20T03:45:56;3.80;;;3.13;;
7719;SDS011;3902;49.474;8.616;2023-02-20T03:48:44;3.87;;;3.20;;
7719;SDS011;3902;49.474;8.616;2023-02-20T03:51:14;6.27;;;3.23;;
7719;SDS011;3902;49.474;8.616;2023-02-20T03:53:40;5.80;;;3.70;;
7719;SDS011;3902;49.474;8.616;2023-02-20T03:56:09;6.43;;;3.23;;
7719;SDS011;3902;49.474;8.616;2023-02-20T03:58:41;6.30;;;3.47;;
7719;SDS011;3902;49.474;8.616;2023-02-20T04:01:09;4.57;;;3.63;;
7719;SDS011;3902;49.474;8.616;2023-02-20T04:03:39;6.67;;;3.60;;
7719;SDS011;3902;49.474;8.616;2023-02-20T04:06:08;6.03;;;3.63;;
7719;SDS011;3902;49.474;8.616;2023-02-20T04:08:37;4.83;;;3.60;;
7719;SDS011;3902;49.474;8.616;2023-02-20T04:11:12;5.67;;;3.33;;
7719;SDS011;3902;49.474;8.616;2023-02-20T04:13:46;6.83;;;4.00;;
7719;SDS011;3902;49.474;8.616;2023-02-20T04:16:13;5.17;;;3.77;;
7719;SDS011;3902;49.474;8.616;2023-02-20T04:18:39;6.90;;;3.53;;
7719;SDS011;3902;49.474;8.616;2023-02-20T04:21:07;6.13;;;3.90;;
7719;SDS011;3902;49.474;8.616;2023-02-20T04:23:40;6.70;;;3.60;;
7719;SDS011;3902;49.474;8.616;2023-02-20T04:26:11;6.77;;;4.37;;
7719;SDS011;3902;49.474;8.616;2023-02-20T04:28:41;5.70;;;3.90;;
7719;SDS011;3902;49.474;8.616;2023-02-20T04:31:08;4.53;;;3.93;;
7719;SDS011;3902;49.474;8.616;2023-02-20T04:33:36;7.70;;;4.17;;
7719;SDS011;3902;49.474;8.616;2023-02-20T04:36:02;7.30;;;4.40;;
7719;SDS011;3902;49.474;8.616;2023-02-20T04:38:28;4.53;;;3.73;;
7719;SDS011;3902;49.474;8.616;2023-02-20T04:40:53;7.53;;;4.07;;
7719;SDS011;3902;49.474;8.616;2023-02-20T04:43:19;8.83;;;4.20;;
7719;SDS011;3902;49.474;8.616;2023-02-20T04:45:45;6.47;;;4.60;;
7719;SDS011;3902;49.474;8.616;2023-02-20T04:48:10;5.40;;;3.77;;
7719;SDS011;3902;49.474;8.616;2023-02-20T04:50:36;5.80;;;4.17;;
7719;SDS011;3902;49.474;8.616;2023-02-20T04:53:02;3.93;;;3.50;;
7719;SDS011;3902;49.474;8.616;2023-02-20T04:55:27;5.20;;;3.90;;
7719;SDS011;3902;49.474;8.616;2023-02-20T04:57:53;4.80;;;3.53;;
7719;SDS011;3902;49.474;8.616;2023-02-20T05:00:20;4.90;;;3.80;;
7719;SDS011;3902;49.474;8.616;2023-02-20T05:02:46;6.10;;;4.17;;
7719;SDS011;3902;49.474;8.616;2023-02-20T05:05:17;7.40;;;3.97;;
7719;SDS011;3902;49.474;8.616;2023-02-20T05:07:57;6.13;;;3.80;;
7719;SDS011;3902;49.474;8.616;2023-02-20T05:10:25;8.27;;;3.87;;
7719;SDS011;3902;49.474;8.616;2023-02-20T05:12:52;6.23;;;4.03;;
7719;SDS011;3902;49.474;8.616;2023-02-20T05:15:18;7.43;;;4.03;;
7719;SDS011;3902;49.474;8.616;2023-02-20T05:17:44;6.90;;;4.27;;
7719;SDS011;3902;49.474;8.616;2023-02-20T05:20:10;5.33;;;4.20;;
7719;SDS011;3902;49.474;8.616;2023-02-20T05:22:37;6.17;;;4.40;;
7719;SDS011;3902;49.474;8.616;2023-02-20T05:25:02;5.80;;;4.27;;
7719;SDS011;3902;49.474;8.616;2023-02-20T05:27:28;6.17;;;4.20;;
7719;SDS011;3902;49.474;8.616;2023-02-20T05:29:55;6.00;;;4.33;;
7719;SDS011;3902;49.474;8.616;2023-02-20T05:32:22;6.00;;;3.90;;
7719;SDS011;3902;49.474;8.616;2023-02-20T05:34:49;4.83;;;4.20;;
7719;SDS011;3902;49.474;8.616;2023-02-20T05:37:15;7.50;;;4.30;;
7719;SDS011;3902;49.474;8.616;2023-02-20T05:39:42;9.17;;;4.60;;
7719;SDS011;3902;49.474;8.616;2023-02-20T05:42:07;5.87;;;4.30;;
7719;SDS011;3902;49.474;8.616;2023-02-20T05:44:34;7.20;;;4.43;;
7719;SDS011;3902;49.474;8.616;2023-02-20T05:47:00;6.83;;;4.40;;
7719;SDS011;3902;49.474;8.616;2023-02-20T05:49:26;4.43;;;4.03;;
7719;SDS011;3902;49.474;8.616;2023-02-20T05:51:52;5.70;;;4.60;;
7719;SDS011;3902;49.474;8.616;2023-02-20T05:54:20;6.17;;;4.00;;
7719;SDS011;3902;49.474;8.616;2023-02-20T05:56:46;7.70;;;4.43;;
7719;SDS011;3902;49.474;8.616;2023-02-20T05:59:13;8.00;;;4.97;;
7719;SDS011;3902;49.474;8.616;2023-02-20T06:01:41;6.93;;;4.80;;
7719;SDS011;3902;49.474;8.616;2023-02-20T06:04:06;7.67;;;4.67;;
7719;SDS011;3902;49.474;8.616;2023-02-20T06:06:33;7.50;;;4.63;;
7719;SDS011;3902;49.474;8.616;2023-02-20T06:09:00;6.13;;;4.30;;
7719;SDS011;3902;49.474;8.616;2023-02-20T06:11:25;7.70;;;4.60;;
7719;SDS011;3902;49.474;8.616;2023-02-20T06:13:51;4.97;;;4.40;;
7719;SDS011;3902;49.474;8.616;2023-02-20T06:16:24;6.70;;;4.57;;
7719;SDS011;3902;49.474;8.616;2023-02-20T06:18:51;8.47;;;4.80;;
7719;SDS011;3902;49.474;8.616;2023-02-20T06:21:17;7.37;;;4.67;;
7719;SDS011;3902;49.474;8.616;2023-02-20T06:23:43;7.27;;;4.60;;
7719;SDS011;3902;49.474;8.616;2023-02-20T06:26:12;7.77;;;5.03;;
7719;SDS011;3902;49.474;8.616;2023-02-20T06:28:38;7.27;;;4.80;;
7719;SDS011;3902;49.474;8.616;2023-02-20T06:31:04;6.73;;;5.00;;
7719;SDS011;3902;49.474;8.616;2023-02-20T06:33:30;7.07;;;4.70;;
7719;SDS011;3902;49.474;8.616;2023-02-20T06:35:56;10.03;;;5.67;;
7719;SDS011;3902;49.474;8.616;2023-02-20T06:38:22;8.20;;;4.90;;
7719;SDS011;3902;49.474;8.616;2023-02-20T06:40:48;7.17;;;5.30;;
7719;SDS011;3902;49.474;8.616;2023-02-20T06:43:13;9.50;;;5.40;;
7719;SDS011;3902;49.474;8.616;2023-02-20T06:45:39;5.57;;;4.67;;
7719;SDS011;3902;49.474;8.616;2023-02-20T06:48:04;9.00;;;4.73;;
7719;SDS011;3902;49.474;8.616;2023-02-20T06:50:30;9.93;;;5.10;;
7719;SDS011;3902;49.474;8.616;2023-02-20T06:52:56;5.63;;;5.10;;
7719;SDS011;3902;49.474;8.616;2023-02-20T06:55:21;6.33;;;4.87;;
7719;SDS011;3902;49.474;8.616;2023-02-20T06:57:47;8.50;;;5.13;;
7719;SDS011;3902;49.474;8.616;2023-02-20T07:00:13;5.93;;;4.60;;
7719;SDS011;3902;49.474;8.616;2023-02-20T07:02:39;6.80;;;4.83;;
7719;SDS011;3902;49.474;8.616;2023-02-20T07:05:05;6.87;;;5.60;;
7719;SDS011;3902;49.474;8.616;2023-02-20T07:07:33;8.30;;;5.13;;
7719;SDS011;3902;49.474;8.616;2023-02-20T07:09:58;6.37;;;5.07;;
7719;SDS011;3902;49.474;8.616;2023-02-20T07:12:28;7.30;;;5.00;;
7719;SDS011;3902;49.474;8.616;2023-02-20T07:14:55;9.40;;;5.47;;
7719;SDS011;3902;49.474;8.616;2023-02-20T07:17:20;8.70;;;5.37;;
7719;SDS011;3902;49.474;8.616;2023-02-20T07:19:46;8.60;;;4.80;;
7719;SDS011;3902;49.474;8.616;2023-02-20T07:22:11;5.20;;;4.70;;
7719;SDS011;3902;49.474;8.616;2023-02-20T07:24:37;7.33;;;5.70;;
7719;SDS011;3902;49.474;8.616;2023-02-20T07:27:05;10.23;;;5.57;;
7719;SDS011;3902;49.474;8.616;2023-02-20T07:29:31;7.13;;;5.13;;
7719;SDS011;3902;49.474;8.616;2023-02-20T07:31:57;7.50;;;5.97;;
7719;SDS011;3902;49.474;8.616;2023-02-20T07:34:22;8.27;;;5.30;;
7719;SDS011;3902;49.474;8.616;2023-02-20T07:36:48;7.13;;;5.10;;
7719;SDS011;3902;49.474;8.616;2023-02-20T07:39:13;8.33;;;5.00;;
7719;SDS011;3902;49.474;8.616;2023-02-20T07:41:39;7.63;;;5.30;;
7719;SDS011;3902;49.474;8.616;2023-02-20T07:44:05;10.63;;;5.27;;
7719;SDS011;3902;49.474;8.616;2023-02-20T07:46:31;6.20;;;5.43;;
7719;SDS011;3902;49.474;8.616;2023-02-20T07:49:01;7.17;;;5.33;;
7719;SDS011;3902;49.474;8.616;2023-02-20T07:51:28;9.27;;;5.20;;
7719;SDS011;3902;49.474;8.616;2023-02-20T07:53:54;6.37;;;5.40;;
7719;SDS011;3902;49.474;8.616;2023-02-20T07:56:20;7.73;;;5.00;;
7719;SDS011;3902;49.474;8.616;2023-02-20T07:58:46;13.23;;;5.80;;
7719;SDS011;3902;49.474;8.616;2023-02-20T08:01:12;13.40;;;5.53;;
7719;SDS011;3902;49.474;8.616;2023-02-20T08:03:38;6.13;;;5.20;;
7719;SDS011;3902;49.474;8.616;2023-02-20T08:06:04;7.30;;;5.20;;
7719;SDS011;3902;49.474;8.616;2023-02-20T08:08:30;7.40;;;5.43;;
7719;SDS011;3902;49.474;8.616;2023-02-20T08:10:55;6.27;;;5.00;;
7719;SDS011;3902;49.474;8.616;2023-02-20T08:13:21;5.87;;;5.17;;
7719;SDS011;3902;49.474;8.616;2023-02-20T08:15:47;7.80;;;5.83;;
7719;SDS011;3902;49.474;8.616;2023-02-20T08:18:13;9.60;;;5.87;;
7719;SDS011;3902;49.474;8.616;2023-02-20T08:20:39;8.37;;;5.37;;
7719;SDS011;3902;49.474;8.616;2023-02-20T08:23:04;6.17;;;5.40;;
7719;SDS011;3902;49.474;8.616;2023-02-20T08:25:30;9.33;;;6.43;;
7719;SDS011;3902;49.474;8.616;2023-02-20T08:27:56;9.67;;;6.10;;
7719;SDS011;3902;49.474;8.616;2023-02-20T08:30:24;8.30;;;6.13;;
7719;SDS011;3902;49.474;8.616;2023-02-20T08:32:52;8.77;;;6.33;;
7719;SDS011;3902;49.474;8.616;2023-02-20T08:35:19;11.33;;;6.40;;
7719;SDS011;3902;49.474;8.616;2023-02-20T08:37:45;9.23;;;5.83;;
7719;SDS011;3902;49.474;8.616;2023-02-20T08:40:11;12.70;;;6.27;;
7719;SDS011;3902;49.474;8.616;2023-02-20T08:42:37;11.00;;;6.63;;
7719;SDS011;3902;49.474;8.616;2023-02-20T08:45:04;7.00;;;5.90;;
7719;SDS011;3902;49.474;8.616;2023-02-20T08:47:30;8.97;;;6.27;;
7719;SDS011;3902;49.474;8.616;2023-02-20T08:49:55;14.00;;;6.67;;
7719;SDS011;3902;49.474;8.616;2023-02-20T08:52:21;7.57;;;5.30;;
7719;SDS011;3902;49.474;8.616;2023-02-20T08:54:47;8.97;;;6.17;;
7719;SDS011;3902;49.474;8.616;2023-02-20T08:57:13;11.03;;;6.00;;
7719;SDS011;3902;49.474;8.616;2023-02-20T08:59:40;8.07;;;6.00;;
7719;SDS011;3902;49.474;8.616;2023-02-20T09:02:07;8.90;;;6.40;;
7719;SDS011;3902;49.474;8.616;2023-02-20T09:04:39;8.37;;;5.90;;
7719;SDS011;3902;49.474;8.616;2023-02-20T09:07:08;8.27;;;5.23;;
7719;SDS011;3902;49.474;8.616;2023-02-20T09:09:33;10.10;;;5.73;;
7719;SDS011;3902;49.474;8.616;2023-02-20T09:11:59;9.20;;;6.17;;
7719;SDS011;3902;49.474;8.616;2023-02-20T09:14:24;7.40;;;5.83;;
7719;SDS011;3902;49.474;8.616;2023-02-20T09:16:50;9.13;;;6.07;;
7719;SDS011;3902;49.474;8.616;2023-02-20T09:19:17;8.30;;;5.87;;
7719;SDS011;3902;49.474;8.616;2023-02-20T09:21:44;11.70;;;6.33;;
7719;SDS011;3902;49.474;8.616;2023-02-20T09:24:10;13.00;;;6.30;;
7719;SDS011;3902;49.474;8.616;2023-02-20T09:26:36;10.37;;;5.27;;
7719;SDS011;3902;49.474;8.616;2023-02-20T09:29:01;7.57;;;5.97;;
7719;SDS011;3902;49.474;8.616;2023-02-20T09:31:27;8.47;;;6.10;;
7719;SDS011;3902;49.474;8.616;2023-02-20T09:33:52;10.13;;;6.27;;
7719;SDS011;3902;49.474;8.616;2023-02-20T09:36:18;10.17;;;6.10;;
7719;SDS011;3902;49.474;8.616;2023-02-20T09:38:43;9.33;;;5.73;;
7719;SDS011;3902;49.474;8.616;2023-02-20T09:41:11;11.10;;;6.80;;
7719;SDS011;3902;49.474;8.616;2023-02-20T09:44:10;9.90;;;5.93;;
7719;SDS011;3902;49.474;8.616;2023-02-20T09:46:39;8.53;;;5.33;;
7719;SDS011;3902;49.474;8.616;2023-02-20T09:49:19;5.73;;;4.90;;
7719;SDS011;3902;49.474;8.616;2023-02-20T09:51:53;6.73;;;5.10;;
7719;SDS011;3902;49.474;8.616;2023-02-20T09:54:23;7.77;;;5.20;;
7719;SDS011;3902;49.474;8.616;2023-02-20T09:56:55;10.43;;;5.60;;
7719;SDS011;3902;49.474;8.616;2023-02-20T09:59:24;7.60;;;5.10;;
7719;SDS011;3902;49.474;8.616;2023-02-20T10:01:57;8.00;;;5.63;;
7719;SDS011;3902;49.474;8.616;2023-02-20T10:04:47;9.13;;;5.43;;
7719;SDS011;3902;49.474;8.616;2023-02-20T10:07:29;9.53;;;5.20;;
7719;SDS011;3902;49.474;8.616;2023-02-20T10:10:01;12.27;;;6.17;;
7719;SDS011;3902;49.474;8.616;2023-02-20T10:12:43;8.83;;;6.30;;
7719;SDS011;3902;49.474;8.616;2023-02-20T10:18:16;13.03;;;5.90;;
7719;SDS011;3902;49.474;8.616;2023-02-20T10:23:37;9.90;;;6.30;;
7719;SDS011;3902;49.474;8.616;2023-02-20T10:29:14;6.60;;;5.20;;
7719;SDS011;3902;49.474;8.616;2023-02-20T10:31:43;8.40;;;5.67;;
7719;SDS011;3902;49.474;8.616;2023-02-20T10:34:15;10.80;;;5.60;;
7719;SDS011;3902;49.474;8.616;2023-02-20T10:36:47;8.67;;;6.23;;
7719;SDS011;3902;49.474;8.616;2023-02-20T10:39:18;7.43;;;5.60;;
7719;SDS011;3902;49.474;8.616;2023-02-20T10:41:48;12.23;;;6.13;;
7719;SDS011;3902;49.474;8.616;2023-02-20T10:44:27;9.30;;;7.07;;
7719;SDS011;3902;49.474;8.616;2023-02-20T10:47:06;12.50;;;6.53;;
7719;SDS011;3902;49.474;8.616;2023-02-20T10:50:09;13.47;;;6.67;;
7719;SDS011;3902;49.474;8.616;2023-02-20T10:53:03;7.97;;;5.90;;
7719;SDS011;3902;49.474;8.616;2023-02-20T10:55:43;13.57;;;7.40;;
7719;SDS011;3902;49.474;8.616;2023-02-20T10:58:15;9.27;;;6.17;;
7719;SDS011;3902;49.474;8.616;2023-02-20T11:00:47;15.40;;;6.17;;
7719;SDS011;3902;49.474;8.616;2023-02-20T11:03:19;9.50;;;6.97;;
7719;SDS011;3902;49.474;8.616;2023-02-20T11:05:53;13.07;;;7.17;;
7719;SDS011;3902;49.474;8.616;2023-02-20T11:08:21;11.70;;;8.17;;
7719;SDS011;3902;49.474;8.616;2023-02-20T11:10:47;12.20;;;7.17;;
7719;SDS011;3902;49.474;8.616;2023-02-20T11:13:14;12.23;;;6.97;;
7719;SDS011;3902;49.474;8.616;2023-02-20T11:15:43;12.27;;;7.47;;
7719;SDS011;3902;49.474;8.616;2023-02-20T11:18:15;9.90;;;6.40;;
7719;SDS011;3902;49.474;8.616;2023-02-20T11:20:47;13.13;;;6.43;;
7719;SDS011;3902;49.474;8.616;2023-02-20T11:28:39;9.83;;;6.00;;
7719;SDS011;3902;49.474;8.616;2023-02-20T11:31:05;10.70;;;5.97;;
7719;SDS011;3902;49.474;8.616;2023-02-20T11:33:33;10.60;;;6.23;;
7719;SDS011;3902;49.474;8.616;2023-02-20T11:36:13;12.07;;;5.00;;
7719;SDS011;3902;49.474;8.616;2023-02-20T11:38:40;19.30;;;5.53;;
7719;SDS011;3902;49.474;8.616;2023-02-20T11:41:28;11.70;;;4.60;;
7719;SDS011;3902;49.474;8.616;2023-02-20T11:44:05;5.97;;;4.37;;
7719;SDS011;3902;49.474;8.616;2023-02-20T11:46:34;7.73;;;4.23;;
7719;SDS011;3902;49.474;8.616;2023-02-20T11:49:03;8.10;;;4.00;;
7719;SDS011;3902;49.474;8.616;2023-02-20T11:54:06;6.70;;;4.23;;
7719;SDS011;3902;49.474;8.616;2023-02-20T11:56:59;7.60;;;4.20;;
7719;SDS011;3902;49.474;8.616;2023-02-20T11:59:41;9.60;;;5.37;;
7719;SDS011;3902;49.474;8.616;2023-02-20T12:02:20;5.13;;;4.07;;
7719;SDS011;3902;49.474;8.616;2023-02-20T12:12:59;10.33;;;4.53;;
7719;SDS011;3902;49.474;8.616;2023-02-20T12:15:27;6.77;;;4.00;;
7719;SDS011;3902;49.474;8.616;2023-02-20T12:20:28;7.87;;;3.93;;
7719;SDS011;3902;49.474;8.616;2023-02-20T12:23:03;8.50;;;4.50;;
7719;SDS011;3902;49.474;8.616;2023-02-20T12:25:49;16.57;;;4.70;;
7719;SDS011;3902;49.474;8.616;2023-02-20T12:28:42;6.60;;;3.97;;
7719;SDS011;3902;49.474;8.616;2023-02-20T12:31:33;7.00;;;3.50;;
7719;SDS011;3902;49.474;8.616;2023-02-20T12:48:46;13.60;;;3.93;;
7719;SDS011;3902;49.474;8.616;2023-02-20T12:54:25;6.67;;;3.10;;
7719;SDS011;3902;49.474;8.616;2023-02-20T12:57:21;4.00;;;2.40;;
7719;SDS011;3902;49.474;8.616;2023-02-20T13:00:07;6.23;;;2.63;;
7719;SDS011;3902;49.474;8.616;2023-02-20T13:02:47;6.43;;;3.10;;
7719;SDS011;3902;49.474;8.616;2023-02-20T13:05:19;5.90;;;2.83;;
7719;SDS011;3902;49.474;8.616;2023-02-20T13:07:56;6.90;;;3.47;;
7719;SDS011;3902;49.474;8.616;2023-02-20T13:10:29;7.67;;;3.33;;
7719;SDS011;3902;49.474;8.616;2023-02-20T13:12:58;7.33;;;3.23;;
7719;SDS011;3902;49.474;8.616;2023-02-20T13:15:42;6.80;;;3.37;;
7719;SDS011;3902;49.474;8.616;2023-02-20T13:21:11;6.10;;;2.50;;
7719;SDS011;3902;49.474;8.616;2023-02-20T13:23:39;5.07;;;2.80;;
7719;SDS011;3902;49.474;8.616;2023-02-20T13:29:17;2.70;;;2.23;;
7719;SDS011;3902;49.474;8.616;2023-02-20T13:31:47;3.90;;;2.73;;
7719;SDS011;3902;49.474;8.616;2023-02-20T13:36:40;3.80;;;2.73;;
7719;SDS011;3902;49.474;8.616;2023-02-20T13:57:31;6.63;;;2.70;;
7719;SDS011;3902;49.474;8.616;2023-02-20T13:59:58;6.90;;;2.93;;
7719;SDS011;3902;49.474;8.616;2023-02-20T14:02:25;5.50;;;2.50;;
7719;SDS011;3902;49.474;8.616;2023-02-20T14:05:00;5.87;;;2.27;;
7719;SDS011;3902;49.474;8.616;2023-02-20T14:09:59;3.00;;;2.13;;
7719;SDS011;3902;49.474;8.616;2023-02-20T14:12:26;6.73;;;2.93;;
7719;SDS011;3902;49.474;8.616;2023-02-20T14:14:51;5.87;;;2.33;;
7719;SDS011;3902;49.474;8.616;2023-02-20T14:17:18;3.00;;;2.37;;
7719;SDS011;3902;49.474;8.616;2023-02-20T14:19:47;2.90;;;2.20;;
7719;SDS011;3902;49.474;8.616;2023-02-20T14:27:41;5.80;;;2.40;;
7719;SDS011;3902;49.474;8.616;2023-02-20T14:30:13;3.10;;;2.30;;
7719;SDS011;3902;49.474;8.616;2023-02-20T14:32:53;6.30;;;2.60;;
7719;SDS011;3902;49.474;8.616;2023-02-20T14:35:42;6.77;;;2.20;;
7719;SDS011;3902;49.474;8.616;2023-02-20T14:38:32;6.47;;;2.43;;
7719;SDS011;3902;49.474;8.616;2023-02-20T14:41:22;4.63;;;2.30;;
7719;SDS011;3902;49.474;8.616;2023-02-20T14:44:01;4.80;;;2.80;;
7719;SDS011;3902;49.474;8.616;2023-02-20T14:46:39;5.10;;;2.63;;
7719;SDS011;3902;49.474;8.616;2023-02-20T14:49:12;5.23;;;2.33;;
7719;SDS011;3902;49.474;8.616;2023-02-20T14:51:40;5.13;;;2.60;;
7719;SDS011;3902;49.474;8.616;2023-02-20T14:56:45;4.90;;;2.53;;
7719;SDS011;3902;49.474;8.616;2023-02-20T14:59:22;5.37;;;2.90;;
7719;SDS011;3902;49.474;8.616;2023-02-20T15:01:51;5.77;;;2.37;;
7719;SDS011;3902;49.474;8.616;2023-02-20T15:04:22;5.93;;;3.13;;
7719;SDS011;3902;49.474;8.616;2023-02-20T15:06:49;5.40;;;2.40;;
7719;SDS011;3902;49.474;8.616;2023-02-20T15:09:17;6.20;;;3.20;;
7719;SDS011;3902;49.474;8.616;2023-02-20T15:14:25;6.40;;;2.63;;
7719;SDS011;3902;49.474;8.616;2023-02-20T15:17:05;4.83;;;2.93;;
7719;SDS011;3902;49.474;8.616;2023-02-20T15:19:37;5.00;;;2.57;;
7719;SDS011;3902;49.474;8.616;2023-02-20T15:22:04;7.43;;;2.80;;
7719;SDS011;3902;49.474;8.616;2023-02-20T15:24:34;6.27;;;2.73;;
7719;SDS011;3902;49.474;8.616;2023-02-20T15:30:12;6.40;;;2.80;;
7719;SDS011;3902;49.474;8.616;2023-02-20T15:32:42;7.00;;;2.80;;
7719;SDS011;3902;49.474;8.616;2023-02-20T15:35:16;4.70;;;2.67;;
7719;SDS011;3902;49.474;8.616;2023-02-20T15:37:45;5.27;;;2.60;;
7719;SDS011;3902;49.474;8.616;2023-02-20T15:40:19;7.00;;;2.40;;
7719;SDS011;3902;49.474;8.616;2023-02-20T15:42:49;5.53;;;2.80;;
7719;SDS011;3902;49.474;8.616;2023-02-20T15:45:20;3.63;;;2.37;;
7719;SDS011;3902;49.474;8.616;2023-02-20T15:47:47;4.87;;;2.47;;
7719;SDS011;3902;49.474;8.616;2023-02-20T15:50:12;7.87;;;2.63;;
7719;SDS011;3902;49.474;8.616;2023-02-20T15:52:38;6.30;;;2.40;;
7719;SDS011;3902;49.474;8.616;2023-02-20T15:55:03;4.23;;;2.40;;
7719;SDS011;3902;49.474;8.616;2023-02-20T15:57:29;4.70;;;2.73;;
7719;SDS011;3902;49.474;8.616;2023-02-20T15:59:55;5.73;;;2.63;;
7719;SDS011;3902;49.474;8.616;2023-02-20T16:02:21;6.40;;;3.07;;
7719;SDS011;3902;49.474;8.616;2023-02-20T16:04:48;4.70;;;2.43;;
7719;SDS011;3902;49.474;8.616;2023-02-20T16:07:16;4.03;;;2.60;;
7719;SDS011;3902;49.474;8.616;2023-02-20T16:09:42;4.80;;;3.23;;
7719;SDS011;3902;49.474;8.616;2023-02-20T16:12:15;7.40;;;3.93;;
7719;SDS011;3902;49.474;8.616;2023-02-20T16:14:48;5.63;;;3.03;;
7719;SDS011;3902;49.474;8.616;2023-02-20T16:17:21;6.67;;;3.50;;
7719;SDS011;3902;49.474;8.616;2023-02-20T16:19:49;6.77;;;3.50;;
7719;SDS011;3902;49.474;8.616;2023-02-20T16:22:15;5.93;;;3.17;;
7719;SDS011;3902;49.474;8.616;2023-02-20T16:24:40;4.60;;;3.03;;
7719;SDS011;3902;49.474;8.616;2023-02-20T16:29:44;6.13;;;3.60;;
7719;SDS011;3902;49.474;8.616;2023-02-20T16:32:17;6.50;;;3.23;;
7719;SDS011;3902;49.474;8.616;2023-02-20T16:34:43;7.40;;;2.93;;
7719;SDS011;3902;49.474;8.616;2023-02-20T16:37:09;5.73;;;3.03;;
7719;SDS011;3902;49.474;8.616;2023-02-20T16:39:36;5.27;;;2.73;;
7719;SDS011;3902;49.474;8.616;2023-02-20T16:42:02;4.17;;;3.00;;
7719;SDS011;3902;49.474;8.616;2023-02-20T16:44:42;7.43;;;3.17;;
7719;SDS011;3902;49.474;8.616;2023-02-20T16:47:10;6.33;;;3.10;;
7719;SDS011;3902;49.474;8.616;2023-02-20T16:49:37;6.17;;;3.50;;
7719;SDS011;3902;49.474;8.616;2023-02-20T16:54:50;3.33;;;2.60;;
7719;SDS011;3902;49.474;8.616;2023-02-20T16:57:17;5.70;;;2.90;;
7719;SDS011;3902;49.474;8.616;2023-02-20T16:59:45;4.80;;;2.50;;
7719;SDS011;3902;49.474;8.616;2023-02-20T17:02:14;4.97;;;2.60;;
7719;SDS011;3902;49.474;8.616;2023-02-20T17:04:45;3.23;;;2.33;;
7719;SDS011;3902;49.474;8.616;2023-02-20T17:07:11;4.93;;;3.30;;
7719;SDS011;3902;49.474;8.616;2023-02-20T17:09:37;4.20;;;2.50;;
7719;SDS011;3902;49.474;8.616;2023-02-20T17:12:03;5.97;;;2.90;;
7719;SDS011;3902;49.474;8.616;2023-02-20T17:14:29;6.20;;;3.47;;
7719;SDS011;3902;49.474;8.616;2023-02-20T17:16:54;8.00;;;3.20;;
7719;SDS011;3902;49.474;8.616;2023-02-20T17:19:20;7.80;;;3.23;;
7719;SDS011;3902;49.474;8.616;2023-02-20T17:21:46;5.20;;;3.03;;
7719;SDS011;3902;49.474;8.616;2023-02-20T17:24:13;7.40;;;3.10;;
7719;SDS011;3902;49.474;8.616;2023-02-20T17:26:39;6.23;;;3.27;;
7719;SDS011;3902;49.474;8.616;2023-02-20T17:29:05;5.10;;;3.30;;
7719;SDS011;3902;49.474;8.616;2023-02-20T17:31:30;6.73;;;3.87;;
7719;SDS011;3902;49.474;8.616;2023-02-20T17:33:56;7.00;;;4.23;;
7719;SDS011;3902;49.474;8.616;2023-02-20T17:36:21;6.63;;;3.83;;